Time;durP1;ratioP1;P1;durP2;ratioP2;P2;SDS_P1;SDS_P2;PMS_P1;PMS_P2;Temp;Humidity;BMP_temperature;BMP_pressure;BME280_temperature;BME280_humidity;BME280_pressure;Samples;Min_cycle;Max_cycle;Signal;HPM_P1;HPM_P2
2023/05/28 00:01:32;;;;;;;22.55;10.00;;;13.40;51.20;;;;;;5033500;28;20391;-75
2023/05/28 00:03:58;;;;;;;17.85;9.25;;;13.50;50.30;;;;;;5033246;28;20406;-72
2023/05/28 00:06:23;;;;;;;14.40;9.02;;;13.50;50.80;;;;;;5033469;28;20383;-74
2023/05/28 00:08:49;;;;;;;15.85;8.48;;;13.60;49.50;;;;;;5033034;28;20886;-73
2023/05/28 00:11:15;;;;;;;19.77;9.05;;;13.50;50.40;;;;;;5031598;28;20462;-71
2023/05/28 00:13:40;;;;;;;20.15;9.30;;;13.30;52.50;;;;;;5033088;28;20394;-71
2023/05/28 00:16:06;;;;;;;20.83;9.60;;;13.00;54.30;;;;;;5032852;28;20732;-73
2023/05/28 00:18:32;;;;;;;21.50;9.67;;;12.80;56.80;;;;;;5033133;28;20430;-72
2023/05/28 00:20:58;;;;;;;17.52;9.60;;;12.70;58.70;;;;;;5032600;28;20856;-75
2023/05/28 00:23:23;;;;;;;16.25;9.43;;;12.70;59.70;;;;;;5032760;28;20410;-74
2023/05/28 00:25:49;;;;;;;16.50;9.70;;;12.60;60.90;;;;;;5032667;28;20772;-73
2023/05/28 00:28:14;;;;;;;20.50;10.27;;;12.40;62.10;;;;;;5033282;28;20874;-73
2023/05/28 00:30:40;;;;;;;18.27;9.63;;;12.30;63.40;;;;;;5032505;28;20386;-73
2023/05/28 00:33:05;;;;;;;16.57;9.43;;;12.20;64.50;;;;;;5032979;28;20446;-73
2023/05/28 00:35:31;;;;;;;18.92;10.85;;;12.10;65.70;;;;;;5032984;28;20379;-75
2023/05/28 00:37:56;;;;;;;15.90;10.15;;;12.00;66.40;;;;;;5033318;28;20383;-73
2023/05/28 00:40:22;;;;;;;21.67;10.20;;;12.00;67.40;;;;;;5033171;28;20383;-74
2023/05/28 00:42:48;;;;;;;20.70;9.90;;;12.20;67.10;;;;;;5032282;28;20521;-74
2023/05/28 00:45:14;;;;;;;12.87;8.50;;;12.10;66.70;;;;;;5032699;28;20774;-73
2023/05/28 00:47:42;;;;;;;17.23;8.75;;;12.10;66.60;;;;;;5033159;28;20394;-75
2023/05/28 00:50:09;;;;;;;17.08;8.73;;;11.90;67.40;;;;;;5032527;28;20886;-74
2023/05/28 00:52:36;;;;;;;16.17;9.88;;;11.80;68.30;;;;;;5032627;28;20456;-73
2023/05/28 00:55:02;;;;;;;14.13;8.40;;;11.70;69.30;;;;;;5032813;28;20812;-73
2023/05/28 00:57:27;;;;;;;15.65;8.20;;;11.60;70.10;;;;;;5032812;28;20379;-72
2023/05/28 00:59:57;;;;;;;18.42;10.40;;;11.60;71.20;;;;;;5032573;28;20490;-73
2023/05/28 01:02:23;;;;;;;14.75;8.50;;;11.50;71.70;;;;;;5032745;28;20883;-72
2023/05/28 01:04:50;;;;;;;15.27;8.20;;;11.50;72.00;;;;;;5032401;28;20456;-73
2023/05/28 01:07:16;;;;;;;16.77;8.67;;;11.50;72.90;;;;;;5032856;28;20481;-74
2023/05/28 01:09:42;;;;;;;14.63;8.70;;;11.40;73.00;;;;;;5032739;28;20551;-73
2023/05/28 01:12:08;;;;;;;15.07;8.73;;;11.40;74.00;;;;;;5032466;28;20379;-72
2023/05/28 01:14:37;;;;;;;16.52;9.63;;;11.40;74.00;;;;;;5032666;28;20478;-73
2023/05/28 01:17:03;;;;;;;18.73;9.60;;;11.40;74.60;;;;;;5033745;28;20909;-73
2023/05/28 01:19:29;;;;;;;13.27;8.73;;;11.30;75.40;;;;;;5033724;28;20391;-73
2023/05/28 01:22:05;;;;;;;13.35;9.00;;;11.30;75.90;;;;;;5032670;28;20387;-72
2023/05/28 01:24:39;;;;;;;18.70;9.10;;;11.30;76.70;;;;;;5033195;28;20403;-74
2023/05/28 01:27:06;;;;;;;17.60;8.68;;;11.40;76.20;;;;;;5032650;28;20878;-72
2023/05/28 01:29:32;;;;;;;14.23;9.00;;;11.30;75.80;;;;;;5037929;28;20379;-73
2023/05/28 01:31:57;;;;;;;16.63;8.93;;;11.30;76.70;;;;;;5032983;28;20378;-73
2023/05/28 01:34:24;;;;;;;20.90;10.15;;;11.40;76.00;;;;;;5032631;28;20419;-72
2023/05/28 01:36:58;;;;;;;15.20;9.20;;;11.30;76.80;;;;;;5032188;28;20387;-72
2023/05/28 01:39:27;;;;;;;19.30;9.80;;;11.20;77.90;;;;;;5032325;28;20391;-74
2023/05/28 01:41:53;;;;;;;16.80;8.77;;;11.20;78.30;;;;;;5031731;28;20386;-73
2023/05/28 01:44:19;;;;;;;15.85;8.45;;;11.20;78.20;;;;;;5031852;28;20457;-70
2023/05/28 01:46:49;;;;;;;18.13;9.20;;;11.20;78.40;;;;;;5031688;28;20375;-73
2023/05/28 01:49:15;;;;;;;17.65;8.70;;;11.20;78.70;;;;;;5031911;28;20409;-75
2023/05/28 01:51:40;;;;;;;17.45;9.10;;;11.30;79.10;;;;;;5031374;28;20379;-74
2023/05/28 01:54:06;;;;;;;19.30;9.88;;;11.30;77.40;;;;;;5031620;28;20383;-73
2023/05/28 01:56:32;;;;;;;15.27;8.38;;;11.20;77.80;;;;;;5031783;28;20812;-73
2023/05/28 01:58:57;;;;;;;17.77;9.77;;;11.30;78.10;;;;;;5031647;28;20494;-73
2023/05/28 02:01:32;;;;;;;16.50;8.70;;;11.60;74.90;;;;;;5031171;28;20876;-72
2023/05/28 02:03:59;;;;;;;16.50;8.65;;;11.50;74.60;;;;;;5031183;28;20410;-74
2023/05/28 02:06:29;;;;;;;15.30;8.68;;;11.50;74.80;;;;;;5031160;28;20476;-73
2023/05/28 02:08:55;;;;;;;17.42;8.50;;;11.30;76.60;;;;;;5031454;28;20859;-74
2023/05/28 02:11:21;;;;;;;14.80;8.10;;;11.40;74.40;;;;;;5031321;28;20393;-74
2023/05/28 02:13:48;;;;;;;14.55;8.40;;;11.30;74.80;;;;;;5031853;28;20391;-73
2023/05/28 02:16:17;;;;;;;16.60;8.70;;;11.10;76.60;;;;;;5031449;28;20395;-73
2023/05/28 02:18:44;;;;;;;20.15;8.68;;;11.00;78.70;;;;;;5031043;28;20391;-75
2023/05/28 02:21:10;;;;;;;15.00;8.63;;;10.90;80.00;;;;;;5030530;28;20460;-74
2023/05/28 02:23:42;;;;;;;15.82;8.15;;;10.80;81.20;;;;;;5030574;28;20907;-73
2023/05/28 02:26:08;;;;;;;15.70;9.23;;;10.90;81.50;;;;;;5030576;28;20399;-74
2023/05/28 02:28:33;;;;;;;15.73;8.48;;;10.90;81.30;;;;;;5031123;28;20410;-73
2023/05/28 02:30:59;;;;;;;13.40;7.97;;;11.00;80.30;;;;;;5030533;28;20898;-73
2023/05/28 02:33:25;;;;;;;16.80;9.30;;;11.10;79.20;;;;;;5029388;28;20388;-71
2023/05/28 02:35:50;;;;;;;17.47;8.40;;;11.10;79.00;;;;;;5030483;28;20478;-74
2023/05/28 02:38:16;;;;;;;13.07;8.38;;;11.10;79.80;;;;;;5029366;28;20493;-71
2023/05/28 02:40:41;;;;;;;14.60;7.63;;;11.30;77.50;;;;;;5030547;28;20414;-72
2023/05/28 02:43:07;;;;;;;16.55;8.32;;;11.30;75.30;;;;;;5030480;28;20456;-72
2023/05/28 02:45:33;;;;;;;13.87;8.63;;;11.40;73.20;;;;;;5029230;28;20387;-74
2023/05/28 02:47:58;;;;;;;12.43;7.80;;;11.20;73.60;;;;;;5030515;28;20382;-71
2023/05/28 02:50:24;;;;;;;17.03;8.60;;;11.20;75.40;;;;;;5030978;28;20461;-74
2023/05/28 02:52:49;;;;;;;14.27;8.00;;;11.20;75.30;;;;;;5030712;28;20513;-73
2023/05/28 02:55:15;;;;;;;14.60;8.47;;;11.30;72.20;;;;;;5033448;28;20410;-74
2023/05/28 02:57:41;;;;;;;16.80;8.20;;;11.10;72.60;;;;;;5034965;28;20948;-72
2023/05/28 03:00:09;;;;;;;15.10;8.50;;;10.90;75.40;;;;;;5034868;28;20479;-73
2023/05/28 03:02:35;;;;;;;14.73;8.55;;;10.70;77.30;;;;;;5034684;28;20382;-74
2023/05/28 03:05:02;;;;;;;15.05;8.00;;;10.80;79.20;;;;;;5034500;28;20501;-72
2023/05/28 03:07:31;;;;;;;14.32;8.32;;;10.90;77.50;;;;;;5033732;28;20393;-72
2023/05/28 03:09:57;;;;;;;16.77;8.63;;;10.90;76.90;;;;;;5039876;28;20401;-72
2023/05/28 03:12:23;;;;;;;15.20;7.93;;;10.80;77.30;;;;;;5041870;28;20379;-72
2023/05/28 03:14:49;;;;;;;12.25;7.55;;;10.80;78.40;;;;;;5041932;28;21109;-72
2023/05/28 03:17:15;;;;;;;14.55;8.10;;;10.90;76.20;;;;;;5041261;28;20394;-72
2023/05/28 03:19:40;;;;;;;14.10;7.88;;;10.70;78.30;;;;;;5038163;28;20391;-73
2023/05/28 03:22:06;;;;;;;13.97;8.23;;;10.60;80.40;;;;;;5037532;28;20379;-73
2023/05/28 03:24:32;;;;;;;14.83;8.63;;;10.50;81.10;;;;;;5037461;28;20409;-72
2023/05/28 03:26:59;;;;;;;14.60;8.32;;;10.70;80.70;;;;;;5058762;23;20805;-73
2023/05/28 03:29:25;;;;;;;16.17;8.63;;;10.70;80.50;;;;;;5054109;28;20473;-73
2023/05/28 03:31:50;;;;;;;13.73;8.20;;;10.80;79.10;;;;;;5053930;28;20858;-72
2023/05/28 03:34:16;;;;;;;14.70;8.60;;;10.70;78.90;;;;;;5054234;28;20476;-72
2023/05/28 03:36:42;;;;;;;14.60;8.07;;;10.70;79.40;;;;;;5054054;28;20467;-73
2023/05/28 03:39:08;;;;;;;13.43;7.80;;;10.80;78.50;;;;;;5054421;28;20382;-74
2023/05/28 03:41:35;;;;;;;10.52;7.70;;;10.80;76.40;;;;;;5053319;28;20769;-74
2023/05/28 03:44:00;;;;;;;13.25;8.40;;;10.70;77.70;;;;;;5056862;28;20409;-74
2023/05/28 03:46:26;;;;;;;16.33;8.10;;;10.60;79.20;;;;;;5054425;28;20386;-74
2023/05/28 03:48:52;;;;;;;13.60;8.20;;;10.80;79.00;;;;;;5054556;28;20435;-74
2023/05/28 03:51:17;;;;;;;13.80;8.10;;;11.00;75.00;;;;;;5054127;28;20393;-74
2023/05/28 03:53:43;;;;;;;14.52;7.90;;;11.30;70.10;;;;;;5054985;28;20854;-73
2023/05/28 03:56:09;;;;;;;16.45;8.10;;;11.30;69.10;;;;;;5055565;28;20471;-73
2023/05/28 03:58:34;;;;;;;13.52;8.27;;;11.20;70.30;;;;;;5055544;28;20381;-73
2023/05/28 04:01:00;;;;;;;15.38;9.20;;;11.30;69.70;;;;;;5054542;28;20385;-72
2023/05/28 04:03:27;;;;;;;16.35;9.10;;;11.20;70.90;;;;;;5054342;28;20463;-73
2023/05/28 04:05:52;;;;;;;16.93;8.93;;;11.10;72.90;;;;;;5053425;28;20468;-73
2023/05/28 04:08:18;;;;;;;15.60;8.33;;;11.30;69.80;;;;;;5054174;28;20468;-73
2023/05/28 04:10:43;;;;;;;16.00;8.80;;;11.30;69.50;;;;;;5054052;28;20382;-73
2023/05/28 04:13:09;;;;;;;18.00;8.73;;;11.10;71.60;;;;;;5054113;28;20380;-73
2023/05/28 04:15:35;;;;;;;15.53;8.60;;;11.20;71.70;;;;;;5054030;28;20389;-73
2023/05/28 04:18:00;;;;;;;12.97;8.07;;;11.20;71.70;;;;;;5052995;28;20769;-74
2023/05/28 04:20:26;;;;;;;13.23;8.23;;;11.20;73.50;;;;;;5054248;28;20392;-72
2023/05/28 04:22:51;;;;;;;16.20;8.40;;;11.40;70.70;;;;;;5053743;28;20423;-73
2023/05/28 04:25:20;;;;;;;15.70;8.20;;;11.70;66.20;;;;;;5053554;28;20901;-74
2023/05/28 04:27:46;;;;;;;15.23;8.30;;;11.70;66.00;;;;;;5053427;28;20393;-74
2023/05/28 04:30:12;;;;;;;11.52;8.25;;;11.80;64.70;;;;;;5053991;28;20419;-73
2023/05/28 04:32:40;;;;;;;14.77;8.27;;;12.00;63.10;;;;;;5053633;28;20400;-73
2023/05/28 04:35:10;;;;;;;15.77;8.48;;;11.80;65.20;;;;;;5053358;28;20750;-72
2023/05/28 04:37:39;;;;;;;12.07;7.72;;;11.80;66.10;;;;;;5053822;28;20871;-73
2023/05/28 04:40:07;;;;;;;14.52;8.30;;;12.10;62.50;;;;;;5053997;28;20622;-76
2023/05/28 04:42:32;;;;;;;11.85;7.68;;;12.00;62.20;;;;;;5053782;28;20386;-73
2023/05/28 04:44:58;;;;;;;14.98;8.13;;;12.00;62.70;;;;;;5053288;28;20454;-73
2023/05/28 04:47:24;;;;;;;15.77;8.70;;;12.10;62.20;;;;;;5053295;28;20386;-73
2023/05/28 04:49:49;;;;;;;13.45;8.23;;;12.40;59.40;;;;;;5053108;28;20468;-73
2023/05/28 04:52:16;;;;;;;16.40;8.50;;;12.60;56.30;;;;;;5053173;28;20382;-73
2023/05/28 04:54:45;;;;;;;16.42;8.23;;;12.80;52.80;;;;;;5054192;28;20385;-73
2023/05/28 04:57:11;;;;;;;14.13;7.90;;;13.00;51.50;;;;;;5055097;28;20382;-73
2023/05/28 04:59:37;;;;;;;16.85;7.80;;;13.00;51.80;;;;;;5055766;28;20792;-74
2023/05/28 05:02:03;;;;;;;14.30;8.00;;;13.10;51.90;;;;;;5053224;28;20390;-73
2023/05/28 05:04:29;;;;;;;15.43;8.02;;;13.10;52.30;;;;;;5054477;28;20429;-74
2023/05/28 05:06:54;;;;;;;14.17;9.30;;;13.20;52.80;;;;;;5055015;28;20394;-73
2023/05/28 05:09:20;;;;;;;16.60;8.83;;;13.30;53.60;;;;;;5057089;28;20392;-75
2023/05/28 05:11:46;;;;;;;12.17;8.23;;;13.30;53.90;;;;;;5061809;28;20454;-74
2023/05/28 05:14:12;;;;;;;14.52;8.70;;;13.50;53.00;;;;;;5065210;28;20754;-73
2023/05/28 05:16:37;;;;;;;18.17;8.77;;;13.60;51.50;;;;;;5061215;28;20385;-73
2023/05/28 05:19:03;;;;;;;15.90;9.00;;;13.50;52.70;;;;;;5057165;28;20401;-75
2023/05/28 05:21:28;;;;;;;17.60;8.50;;;13.40;55.30;;;;;;5055668;28;20392;-73
2023/05/28 05:23:54;;;;;;;14.57;8.13;;;13.60;53.20;;;;;;5053944;28;20410;-74
2023/05/28 05:26:20;;;;;;;13.98;8.10;;;13.50;54.00;;;;;;5053571;28;20397;-74
2023/05/28 05:28:46;;;;;;;11.30;7.90;;;13.50;53.90;;;;;;5054035;28;20384;-74
2023/05/28 05:31:12;;;;;;;12.67;7.50;;;13.50;54.50;;;;;;5054370;28;20381;-73
2023/05/28 05:33:37;;;;;;;11.33;7.33;;;13.80;51.20;;;;;;5055228;28;20393;-74
2023/05/28 05:36:03;;;;;;;15.52;8.15;;;14.00;49.30;;;;;;5053920;28;20447;-75
2023/05/28 05:38:30;;;;;;;13.95;8.02;;;14.00;48.60;;;;;;5053564;28;20399;-73
2023/05/28 05:40:56;;;;;;;17.27;8.60;;;14.00;49.50;;;;;;5050683;28;20393;-74
2023/05/28 05:43:22;;;;;;;14.37;7.60;;;14.10;49.00;;;;;;5052175;28;20377;-74
2023/05/28 05:45:47;;;;;;;13.80;7.10;;;14.20;48.50;;;;;;5051636;28;20927;-76
2023/05/28 05:48:13;;;;;;;15.07;8.20;;;14.30;48.10;;;;;;5053906;28;20416;-75
2023/05/28 05:50:54;;;;;;;28.70;13.93;;;14.40;47.60;;;;;;5051597;28;20388;-75
2023/05/28 05:53:21;;;;;;;13.60;8.50;;;14.60;46.00;;;;;;5055759;28;20382;-74
2023/05/28 05:55:46;;;;;;;15.35;8.30;;;15.10;43.10;;;;;;5051608;28;20420;-73
2023/05/28 05:58:13;;;;;;;14.83;7.57;;;15.30;40.50;;;;;;5052431;28;20377;-74
2023/05/28 06:00:38;;;;;;;16.50;8.10;;;15.60;37.80;;;;;;5051387;28;20382;-73
2023/05/28 06:03:04;;;;;;;11.52;7.60;;;15.70;36.90;;;;;;5051325;28;20428;-73
2023/05/28 06:05:30;;;;;;;15.27;8.27;;;15.80;36.70;;;;;;5051833;28;20886;-72
2023/05/28 06:07:56;;;;;;;19.10;9.10;;;15.90;36.70;;;;;;5051847;28;20739;-73
2023/05/28 06:10:22;;;;;;;15.53;8.00;;;16.00;36.40;;;;;;5050711;28;20476;-74
2023/05/28 06:12:48;;;;;;;17.10;7.82;;;16.10;36.60;;;;;;5052248;28;20397;-74
2023/05/28 06:15:13;;;;;;;16.85;8.10;;;16.20;37.50;;;;;;5051688;28;20405;-73
2023/05/28 06:17:41;;;;;;;13.40;7.90;;;16.20;36.70;;;;;;5053467;28;20397;-74
2023/05/28 06:20:07;;;;;;;13.63;7.60;;;16.30;36.90;;;;;;5051277;28;20387;-68
2023/05/28 06:22:33;;;;;;;16.70;7.80;;;16.50;36.00;;;;;;5050165;28;20413;-71
2023/05/28 06:25:00;;;;;;;17.20;7.43;;;16.60;35.20;;;;;;5050184;28;20901;-71
2023/05/28 06:27:27;;;;;;;13.13;7.75;;;16.70;35.60;;;;;;5050537;28;20406;-72
2023/05/28 06:29:53;;;;;;;15.13;7.35;;;16.70;35.30;;;;;;5049974;28;20443;-71
2023/05/28 06:32:18;;;;;;;14.25;7.65;;;16.80;35.10;;;;;;5050720;28;20854;-71
2023/05/28 06:34:44;;;;;;;17.25;7.47;;;16.90;33.60;;;;;;5050435;28;20428;-71
2023/05/28 06:37:10;;;;;;;13.63;7.53;;;17.10;33.00;;;;;;5050907;28;20444;-70
2023/05/28 06:39:36;;;;;;;15.82;7.68;;;17.20;32.10;;;;;;5049727;28;20397;-71
2023/05/28 06:42:02;;;;;;;14.77;7.63;;;17.40;31.00;;;;;;5050632;28;20392;-71
2023/05/28 06:44:28;;;;;;;12.95;7.20;;;17.60;29.70;;;;;;5050555;28;20407;-70
2023/05/28 06:46:53;;;;;;;13.40;6.80;;;17.60;29.90;;;;;;5050707;28;20478;-71
2023/05/28 06:49:19;;;;;;;13.15;6.75;;;17.70;30.50;;;;;;5051016;28;20934;-72
2023/05/28 06:51:45;;;;;;;16.17;7.00;;;17.70;27.70;;;;;;5050852;28;20393;-72
2023/05/28 06:54:10;;;;;;;14.33;7.00;;;17.80;27.20;;;;;;5051181;28;20376;-71
2023/05/28 06:56:36;;;;;;;14.30;6.90;;;17.90;27.10;;;;;;5050370;28;20468;-70
2023/05/28 06:59:01;;;;;;;16.35;6.40;;;18.00;26.30;;;;;;5050892;28;20457;-70
2023/05/28 07:01:27;;;;;;;13.33;6.90;;;17.90;27.00;;;;;;5050718;28;20817;-71
2023/05/28 07:03:52;;;;;;;15.27;7.40;;;17.90;27.00;;;;;;5049489;28;20401;-71
2023/05/28 07:06:18;;;;;;;14.32;6.85;;;17.90;27.10;;;;;;5050816;28;20478;-71
2023/05/28 07:08:44;;;;;;;17.77;7.50;;;17.90;27.80;;;;;;5050374;28;20488;-72
2023/05/28 07:11:11;;;;;;;14.52;7.10;;;17.90;27.70;;;;;;5050658;28;20390;-71
2023/05/28 07:13:38;;;;;;;17.70;6.93;;;18.00;28.20;;;;;;5050873;28;20408;-70
2023/05/28 07:16:03;;;;;;;12.80;7.27;;;18.10;27.70;;;;;;5049221;28;20424;-70
2023/05/28 07:18:29;;;;;;;11.73;6.83;;;18.20;27.60;;;;;;5050421;28;20488;-72
2023/05/28 07:20:55;;;;;;;13.27;6.80;;;18.30;27.50;;;;;;5048766;28;20389;-74
2023/05/28 07:23:20;;;;;;;13.20;7.73;;;18.30;28.00;;;;;;5050322;28;20385;-72
2023/05/28 07:25:46;;;;;;;15.18;6.80;;;18.40;27.90;;;;;;5049817;28;20416;-71
2023/05/28 07:28:11;;;;;;;11.10;7.13;;;18.40;26.20;;;;;;5050234;28;20460;-70
2023/05/28 07:30:37;;;;;;;13.57;7.07;;;18.60;25.80;;;;;;5050395;28;20384;-73
2023/05/28 07:33:02;;;;;;;15.63;6.50;;;18.70;25.10;;;;;;5049902;28;20447;-72
2023/05/28 07:35:28;;;;;;;11.50;6.20;;;18.80;22.80;;;;;;5050341;28;20393;-71
2023/05/28 07:37:54;;;;;;;12.67;5.83;;;18.90;21.60;;;;;;5050649;28;20865;-71
2023/05/28 07:40:20;;;;;;;11.32;5.80;;;19.00;19.90;;;;;;5050902;28;20393;-71
2023/05/28 07:42:45;;;;;;;14.90;5.90;;;19.10;18.70;;;;;;5052885;28;20405;-72
2023/05/28 07:45:11;;;;;;;12.93;5.10;;;19.20;17.30;;;;;;5054192;28;20405;-71
2023/05/28 07:47:36;;;;;;;10.80;5.37;;;19.20;15.50;;;;;;5054726;28;20443;-73
2023/05/28 07:50:04;;;;;;;10.23;5.50;;;19.30;15.80;;;;;;5053143;28;20393;-70
2023/05/28 07:52:29;;;;;;;13.20;5.97;;;19.40;16.30;;;;;;5053485;28;20404;-71
2023/05/28 07:54:58;;;;;;;9.13;5.13;;;19.40;16.90;;;;;;5053733;28;20381;-73
2023/05/28 07:57:24;;;;;;;11.98;5.43;;;19.50;14.60;;;;;;5049759;28;20397;-72
2023/05/28 07:59:50;;;;;;;13.73;5.85;;;19.60;15.20;;;;;;5053832;28;20393;-73
2023/05/28 08:02:16;;;;;;;10.73;5.20;;;19.80;14.20;;;;;;5050686;28;20405;-72
2023/05/28 08:04:42;;;;;;;12.70;5.63;;;19.90;14.40;;;;;;5051869;28;21040;-73
2023/05/28 08:07:09;;;;;;;11.37;5.70;;;19.90;15.10;;;;;;5051205;28;20385;-72
2023/05/28 08:09:35;;;;;;;11.70;5.95;;;20.00;15.30;;;;;;5032130;28;20411;-72
2023/05/28 08:12:01;;;;;;;12.75;5.50;;;20.10;14.70;;;;;;5031612;28;20411;-73
2023/05/28 08:14:27;;;;;;;12.73;5.32;;;20.20;13.60;;;;;;5047018;28;20397;-73
2023/05/28 08:16:53;;;;;;;12.35;5.47;;;20.20;13.90;;;;;;5051753;28;20389;-74
2023/05/28 08:19:19;;;;;;;13.10;6.30;;;20.10;13.60;;;;;;5048639;28;20385;-72
2023/05/28 08:21:45;;;;;;;14.18;5.88;;;20.00;13.80;;;;;;5035513;28;20397;-73
2023/05/28 08:24:11;;;;;;;9.67;6.10;;;20.00;15.30;;;;;;5050912;28;20483;-73
2023/05/28 08:26:37;;;;;;;10.10;6.17;;;20.10;14.80;;;;;;5052853;28;20397;-73
2023/05/28 08:29:04;;;;;;;15.52;6.30;;;20.20;15.60;;;;;;5055025;28;20390;-72
2023/05/28 08:31:31;;;;;;;16.75;6.18;;;20.30;16.40;;;;;;5052458;28;20405;-72
2023/05/28 08:33:57;;;;;;;10.38;6.00;;;20.40;15.80;;;;;;5053869;28;20389;-73
2023/05/28 08:36:23;;;;;;;11.43;6.18;;;20.50;16.20;;;;;;5054458;28;20429;-74
2023/05/28 08:38:48;;;;;;;11.57;6.13;;;20.50;16.30;;;;;;5058404;28;20393;-73
2023/05/28 08:41:15;;;;;;;14.27;6.70;;;20.50;16.10;;;;;;5057474;28;20405;-73
2023/05/28 08:43:41;;;;;;;16.98;6.97;;;20.60;16.50;;;;;;5059031;28;20405;-73
2023/05/28 08:46:07;;;;;;;13.05;6.78;;;20.70;16.50;;;;;;5059467;28;20902;-73
2023/05/28 08:48:35;;;;;;;12.35;6.40;;;20.90;16.60;;;;;;5054395;28;20381;-69
2023/05/28 08:51:02;;;;;;;17.67;7.63;;;20.90;15.70;;;;;;5048644;28;20399;-72
2023/05/28 08:53:32;;;;;;;15.40;7.47;;;20.80;17.30;;;;;;5055760;28;20809;-71
2023/05/28 08:55:59;;;;;;;14.30;6.80;;;21.00;16.50;;;;;;5059579;28;20397;-71
2023/05/28 08:58:25;;;;;;;12.95;6.82;;;21.20;15.90;;;;;;5040559;28;20437;-71
2023/05/28 09:00:51;;;;;;;13.93;6.35;;;21.30;15.80;;;;;;5051348;28;20401;-71
2023/05/28 09:03:16;;;;;;;13.40;6.40;;;21.30;15.60;;;;;;5054593;28;20944;-69
2023/05/28 09:05:42;;;;;;;14.25;6.20;;;21.30;15.60;;;;;;5055637;28;20481;-70
2023/05/28 09:08:10;;;;;;;21.00;7.70;;;21.30;16.20;;;;;;5051845;28;20918;-71
2023/05/28 09:10:40;;;;;;;15.55;7.90;;;21.30;17.20;;;;;;5053384;28;20388;-70
2023/05/28 09:13:06;;;;;;;19.15;9.23;;;21.50;16.30;;;;;;5054928;28;20428;-71
2023/05/28 09:15:37;;;;;;;14.75;6.95;;;21.60;16.20;;;;;;5056556;28;20411;-71
2023/05/28 09:18:04;;;;;;;13.80;7.72;;;21.80;15.60;;;;;;5049877;28;20438;-71
2023/05/28 09:20:30;;;;;;;15.38;7.00;;;21.80;15.70;;;;;;5048676;28;20372;-70
2023/05/28 09:23:01;;;;;;;12.98;6.00;;;21.90;15.70;;;;;;5050060;28;20447;-70
2023/05/28 09:25:36;;;;;;;16.85;7.20;;;21.80;14.50;;;;;;5046600;28;20409;-70
2023/05/28 09:28:02;;;;;;;13.35;6.18;;;21.80;14.80;;;;;;5049940;28;20392;-71
2023/05/28 09:30:29;;;;;;;16.67;6.88;;;21.90;15.20;;;;;;5049976;28;20870;-72
2023/05/28 09:33:05;;;;;;;12.43;6.47;;;22.00;13.80;;;;;;5050022;28;20405;-72
2023/05/28 09:35:31;;;;;;;15.45;5.85;;;22.20;14.20;;;;;;5064742;28;20409;-72
2023/05/28 09:38:01;;;;;;;14.93;6.45;;;22.20;12.80;;;;;;5049942;28;20412;-71
2023/05/28 09:40:26;;;;;;;14.60;6.93;;;22.20;13.30;;;;;;5049590;28;20451;-72
2023/05/28 09:42:53;;;;;;;15.35;6.50;;;22.20;14.10;;;;;;5049777;28;20748;-73
2023/05/28 09:45:27;;;;;;;12.93;5.47;;;22.40;13.80;;;;;;5049654;28;20441;-74
2023/05/28 09:47:52;;;;;;;14.40;5.93;;;22.40;12.20;;;;;;5048424;28;20432;-72
2023/05/28 09:50:18;;;;;;;17.03;6.07;;;22.20;13.00;;;;;;5050378;28;20424;-73
2023/05/28 09:52:45;;;;;;;15.45;6.13;;;22.20;12.90;;;;;;5043552;28;20386;-71
2023/05/28 09:55:17;;;;;;;13.27;5.47;;;22.30;12.60;;;;;;5031852;28;20399;-71
2023/05/28 09:58:03;;;;;;;13.32;6.03;;;22.10;13.80;;;;;;5031754;28;20395;-73
2023/05/28 10:00:42;;;;;;;12.55;5.80;;;22.20;13.60;;;;;;5049643;28;20454;-74
2023/05/28 10:03:43;;;;;;;18.75;6.30;;;22.30;13.20;;;;;;5052008;28;20398;-74
2023/05/28 10:06:16;;;;;;;15.75;6.57;;;22.40;12.80;;;;;;5053120;28;20393;-74
2023/05/28 10:08:46;;;;;;;14.00;6.38;;;22.40;12.50;;;;;;5053558;28;20378;-75
2023/05/28 10:11:15;;;;;;;17.40;7.40;;;22.60;12.50;;;;;;5052607;28;20389;-75
2023/05/28 10:13:41;;;;;;;16.30;7.00;;;22.80;13.50;;;;;;5054243;28;20446;-73
2023/05/28 10:16:07;;;;;;;20.83;6.47;;;22.90;12.20;;;;;;5053375;28;20799;-73
2023/05/28 10:18:35;;;;;;;12.40;5.97;;;23.00;11.20;;;;;;5052089;28;20381;-74
2023/05/28 10:21:01;;;;;;;11.10;5.63;;;22.80;10.50;;;;;;5051313;28;20381;-74
2023/05/28 10:23:27;;;;;;;14.30;6.60;;;22.80;10.90;;;;;;5051786;28;20417;-73
2023/05/28 10:25:54;;;;;;;13.88;5.85;;;22.90;11.90;;;;;;5051279;28;20406;-74
2023/05/28 10:28:21;;;;;;;13.95;6.20;;;22.90;11.20;;;;;;5051447;28;20531;-74
2023/05/28 10:31:04;;;;;;;13.70;5.97;;;22.90;10.70;;;;;;5051623;28;20385;-73
2023/05/28 10:33:30;;;;;;;12.27;5.95;;;22.90;11.50;;;;;;5050224;28;20396;-75
2023/05/28 10:35:58;;;;;;;16.33;6.53;;;22.90;11.10;;;;;;5052562;28;20508;-75
2023/05/28 10:38:25;;;;;;;13.20;6.13;;;23.10;11.60;;;;;;5053442;28;20381;-75
2023/05/28 10:40:51;;;;;;;15.68;6.57;;;23.30;10.70;;;;;;5050899;28;20432;-75
2023/05/28 10:43:38;;;;;;;12.70;5.80;;;23.40;10.50;;;;;;5051087;28;20405;-75
2023/05/28 10:46:10;;;;;;;13.48;6.30;;;23.40;10.00;;;;;;5051449;28;20894;-75
2023/05/28 10:48:40;;;;;;;16.50;7.35;;;23.60;10.40;;;;;;5049932;28;20401;-75
2023/05/28 10:51:07;;;;;;;14.52;6.32;;;23.70;10.80;;;;;;5050070;28;20389;-75
2023/05/28 10:53:32;;;;;;;9.70;4.85;;;23.70;9.30;;;;;;5051291;28;20389;-75
2023/05/28 10:56:00;;;;;;;13.18;6.38;;;23.70;8.50;;;;;;5053077;28;20399;-75
2023/05/28 10:58:33;;;;;;;13.10;5.80;;;23.80;9.00;;;;;;5052606;28;20846;-75
2023/05/28 11:01:08;;;;;;;13.35;5.80;;;23.80;9.60;;;;;;5052177;28;20449;-74
2023/05/28 11:03:42;;;;;;;13.95;6.70;;;23.80;8.90;;;;;;5053242;28;20386;-74
2023/05/28 11:06:10;;;;;;;11.98;6.40;;;23.80;10.20;;;;;;5054915;28;20411;-75
2023/05/28 11:08:45;;;;;;;16.05;6.18;;;23.90;9.10;;;;;;5051902;28;20464;-74
2023/05/28 11:11:16;;;;;;;15.77;5.90;;;24.00;9.30;;;;;;5050559;28;20381;-75
2023/05/28 11:13:46;;;;;;;12.13;5.97;;;24.00;9.00;;;;;;5051815;28;20425;-74
2023/05/28 11:16:13;;;;;;;13.35;6.35;;;24.20;8.30;;;;;;5053514;28;20886;-74
2023/05/28 11:18:39;;;;;;;14.23;5.80;;;24.20;8.10;;;;;;5055095;28;20416;-75
2023/05/28 11:21:08;;;;;;;10.00;5.70;;;24.20;8.40;;;;;;5055895;28;20397;-75
2023/05/28 11:23:39;;;;;;;16.02;6.10;;;24.30;8.40;;;;;;5054103;28;20436;-74
2023/05/28 11:26:05;;;;;;;10.43;5.33;;;24.30;8.00;;;;;;5053769;28;20401;-76
2023/05/28 11:28:31;;;;;;;12.23;5.53;;;24.40;7.40;;;;;;5053886;28;20412;-73
2023/05/28 11:30:58;;;;;;;11.27;5.00;;;24.60;7.40;;;;;;5054673;28;20442;-74
2023/05/28 11:33:27;;;;;;;9.13;4.97;;;24.70;6.70;;;;;;5055483;28;20904;-74
2023/05/28 11:35:57;;;;;;;9.68;5.20;;;24.60;6.10;;;;;;5055332;28;20385;-74
2023/05/28 11:38:23;;;;;;;13.35;4.68;;;24.40;6.40;;;;;;5054302;28;20866;-73
2023/05/28 11:40:48;;;;;;;10.20;5.27;;;24.40;6.90;;;;;;5056823;28;20403;-75
2023/05/28 11:43:14;;;;;;;13.50;5.70;;;24.30;7.60;;;;;;5058249;28;20956;-74
2023/05/28 11:45:41;;;;;;;18.83;5.53;;;24.50;7.20;;;;;;5054607;28;20927;-74
2023/05/28 11:48:13;;;;;;;11.80;5.20;;;24.60;6.80;;;;;;5055343;28;20385;-75
2023/05/28 11:50:38;;;;;;;8.43;4.70;;;24.70;7.20;;;;;;5057974;28;20381;-74
2023/05/28 11:53:04;;;;;;;9.37;4.27;;;24.70;6.60;;;;;;5058356;28;20393;-73
2023/05/28 11:55:30;;;;;;;11.00;5.00;;;24.70;5.60;;;;;;5056094;28;20871;-74
2023/05/28 11:57:56;;;;;;;9.85;5.18;;;24.50;5.50;;;;;;5052819;28;20599;-74
2023/05/28 12:00:32;;;;;;;12.52;6.07;;;24.70;7.20;;;;;;5053709;28;20980;-74
2023/05/28 12:02:59;;;;;;;13.85;5.05;;;25.00;7.90;;;;;;5056821;28;20380;-74
2023/05/28 12:05:25;;;;;;;9.68;4.90;;;25.30;5.20;;;;;;5071517;28;20402;-74
2023/05/28 12:07:53;;;;;;;10.88;5.05;;;25.20;6.60;;;;;;5073236;28;20719;-74
2023/05/28 12:10:21;;;;;;;11.50;5.20;;;25.30;4.90;;;;;;5068558;28;20381;-74
2023/05/28 12:12:49;;;;;;;13.20;4.95;;;25.10;5.90;;;;;;5069621;28;20373;-74
2023/05/28 12:15:16;;;;;;;10.77;5.00;;;24.90;5.40;;;;;;5067257;28;20398;-72
2023/05/28 12:17:43;;;;;;;10.90;4.97;;;25.00;5.80;;;;;;5072092;28;20400;-74
2023/05/28 12:20:12;;;;;;;12.55;5.38;;;25.20;6.80;;;;;;5071913;28;20373;-74
2023/05/28 12:22:41;;;;;;;15.10;5.80;;;25.50;5.90;;;;;;5061936;28;20430;-74
2023/05/28 12:25:07;;;;;;;15.25;5.70;;;25.90;7.10;;;;;;5065677;28;20455;-74
2023/05/28 12:27:33;;;;;;;11.25;4.65;;;26.40;6.10;;;;;;5058940;28;20404;-75
2023/05/28 12:29:59;;;;;;;11.43;4.80;;;26.50;3.50;;;;;;5053501;28;20373;-73
2023/05/28 12:32:25;;;;;;;9.98;4.53;;;25.80;4.50;;;;;;5053955;28;20393;-73
2023/05/28 12:34:56;;;;;;;7.55;4.10;;;25.90;4.10;;;;;;5054114;28;20381;-74
2023/05/28 12:37:24;;;;;;;7.80;4.57;;;25.90;3.30;;;;;;5053532;28;20397;-75